sensor_id;sensor_type;location;lat;lon;timestamp;P1;durP1;ratioP1;P2;durP2;ratioP2
13989;SDS011;7069;52.528;13.316;2022-11-20T00:01:44;19.97;;;12.13;;
13989;SDS011;7069;52.528;13.316;2022-11-20T00:04:11;17.27;;;10.73;;
13989;SDS011;7069;52.528;13.316;2022-11-20T00:06:39;14.17;;;11.07;;
13989;SDS011;7069;52.528;13.316;2022-11-20T00:09:06;13.60;;;10.70;;
13989;SDS011;7069;52.528;13.316;2022-11-20T00:11:33;14.90;;;10.97;;
13989;SDS011;7069;52.528;13.316;2022-11-20T00:14:00;12.47;;;10.77;;
13989;SDS011;7069;52.528;13.316;2022-11-20T00:16:27;16.53;;;10.07;;
13989;SDS011;7069;52.528;13.316;2022-11-20T00:18:56;17.33;;;11.00;;
13989;SDS011;7069;52.528;13.316;2022-11-20T00:21:23;14.60;;;10.73;;
13989;SDS011;7069;52.528;13.316;2022-11-20T00:23:53;15.07;;;11.70;;
13989;SDS011;7069;52.528;13.316;2022-11-20T00:26:21;14.70;;;10.73;;
13989;SDS011;7069;52.528;13.316;2022-11-20T00:28:50;15.20;;;10.37;;
13989;SDS011;7069;52.528;13.316;2022-11-20T00:31:18;14.90;;;10.80;;
13989;SDS011;7069;52.528;13.316;2022-11-20T00:33:45;16.07;;;10.47;;
13989;SDS011;7069;52.528;13.316;2022-11-20T00:36:13;20.33;;;14.23;;
13989;SDS011;7069;52.528;13.316;2022-11-20T00:38:41;14.07;;;10.57;;
13989;SDS011;7069;52.528;13.316;2022-11-20T00:41:11;13.30;;;10.33;;
13989;SDS011;7069;52.528;13.316;2022-11-20T00:43:39;14.60;;;10.40;;
13989;SDS011;7069;52.528;13.316;2022-11-20T00:46:07;15.93;;;10.30;;
13989;SDS011;7069;52.528;13.316;2022-11-20T00:48:34;17.93;;;10.93;;
13989;SDS011;7069;52.528;13.316;2022-11-20T00:51:01;16.03;;;10.87;;
13989;SDS011;7069;52.528;13.316;2022-11-20T00:53:28;14.73;;;11.30;;
13989;SDS011;7069;52.528;13.316;2022-11-20T00:55:56;12.63;;;9.83;;
13989;SDS011;7069;52.528;13.316;2022-11-20T00:58:25;12.07;;;9.67;;
13989;SDS011;7069;52.528;13.316;2022-11-20T01:00:59;15.77;;;10.30;;
13989;SDS011;7069;52.528;13.316;2022-11-20T01:03:27;12.93;;;9.67;;
13989;SDS011;7069;52.528;13.316;2022-11-20T01:05:54;15.53;;;10.13;;
13989;SDS011;7069;52.528;13.316;2022-11-20T01:08:28;16.17;;;11.00;;
13989;SDS011;7069;52.528;13.316;2022-11-20T01:10:58;16.90;;;10.33;;
13989;SDS011;7069;52.528;13.316;2022-11-20T01:13:27;12.77;;;9.77;;
13989;SDS011;7069;52.528;13.316;2022-11-20T01:16:06;16.77;;;11.00;;
13989;SDS011;7069;52.528;13.316;2022-11-20T01:18:34;14.00;;;10.47;;
13989;SDS011;7069;52.528;13.316;2022-11-20T01:21:01;14.43;;;10.27;;
13989;SDS011;7069;52.528;13.316;2022-11-20T01:23:33;12.07;;;10.57;;
13989;SDS011;7069;52.528;13.316;2022-11-20T01:26:01;16.20;;;10.87;;
13989;SDS011;7069;52.528;13.316;2022-11-20T01:28:30;13.30;;;10.20;;
13989;SDS011;7069;52.528;13.316;2022-11-20T01:30:57;12.23;;;10.20;;
13989;SDS011;7069;52.528;13.316;2022-11-20T01:33:24;14.63;;;11.37;;
13989;SDS011;7069;52.528;13.316;2022-11-20T01:35:51;14.30;;;9.77;;
13989;SDS011;7069;52.528;13.316;2022-11-20T01:38:19;12.90;;;10.83;;
13989;SDS011;7069;52.528;13.316;2022-11-20T01:40:53;15.80;;;11.00;;
13989;SDS011;7069;52.528;13.316;2022-11-20T01:43:21;15.67;;;11.30;;
13989;SDS011;7069;52.528;13.316;2022-11-20T01:46:03;14.37;;;11.07;;
13989;SDS011;7069;52.528;13.316;2022-11-20T01:48:42;12.50;;;10.03;;
13989;SDS011;7069;52.528;13.316;2022-11-20T01:51:14;13.53;;;9.87;;
13989;SDS011;7069;52.528;13.316;2022-11-20T01:53:44;13.87;;;10.50;;
13989;SDS011;7069;52.528;13.316;2022-11-20T01:56:11;14.73;;;11.23;;
13989;SDS011;7069;52.528;13.316;2022-11-20T01:58:42;12.67;;;11.30;;
13989;SDS011;7069;52.528;13.316;2022-11-20T02:01:13;15.23;;;10.57;;
13989;SDS011;7069;52.528;13.316;2022-11-20T02:03:41;14.37;;;10.60;;
13989;SDS011;7069;52.528;13.316;2022-11-20T02:06:10;15.70;;;10.77;;
13989;SDS011;7069;52.528;13.316;2022-11-20T02:08:39;13.23;;;10.80;;
13989;SDS011;7069;52.528;13.316;2022-11-20T02:11:06;14.53;;;10.77;;
13989;SDS011;7069;52.528;13.316;2022-11-20T02:13:34;15.20;;;10.83;;
13989;SDS011;7069;52.528;13.316;2022-11-20T02:16:10;14.77;;;11.87;;
13989;SDS011;7069;52.528;13.316;2022-11-20T02:18:40;14.30;;;10.43;;
13989;SDS011;7069;52.528;13.316;2022-11-20T02:21:08;14.80;;;10.67;;
13989;SDS011;7069;52.528;13.316;2022-11-20T02:26:21;14.83;;;10.87;;
13989;SDS011;7069;52.528;13.316;2022-11-20T02:28:49;14.70;;;11.53;;
13989;SDS011;7069;52.528;13.316;2022-11-20T02:31:16;15.00;;;11.50;;
13989;SDS011;7069;52.528;13.316;2022-11-20T02:33:43;13.93;;;11.20;;
13989;SDS011;7069;52.528;13.316;2022-11-20T02:36:11;14.93;;;12.07;;
13989;SDS011;7069;52.528;13.316;2022-11-20T02:38:41;15.17;;;11.67;;
13989;SDS011;7069;52.528;13.316;2022-11-20T02:41:09;17.27;;;12.63;;
13989;SDS011;7069;52.528;13.316;2022-11-20T02:43:36;15.27;;;12.30;;
13989;SDS011;7069;52.528;13.316;2022-11-20T02:46:03;14.47;;;11.67;;
13989;SDS011;7069;52.528;13.316;2022-11-20T02:48:33;18.13;;;11.33;;
13989;SDS011;7069;52.528;13.316;2022-11-20T02:51:00;13.73;;;10.77;;
13989;SDS011;7069;52.528;13.316;2022-11-20T02:53:27;14.87;;;12.13;;
13989;SDS011;7069;52.528;13.316;2022-11-20T02:55:54;14.97;;;12.53;;
13989;SDS011;7069;52.528;13.316;2022-11-20T02:58:23;15.37;;;11.17;;
13989;SDS011;7069;52.528;13.316;2022-11-20T03:00:50;13.77;;;11.70;;
13989;SDS011;7069;52.528;13.316;2022-11-20T03:03:17;20.20;;;12.47;;
13989;SDS011;7069;52.528;13.316;2022-11-20T03:05:44;14.30;;;11.53;;
13989;SDS011;7069;52.528;13.316;2022-11-20T03:08:11;14.93;;;11.43;;
13989;SDS011;7069;52.528;13.316;2022-11-20T03:10:38;13.10;;;10.67;;
13989;SDS011;7069;52.528;13.316;2022-11-20T03:13:04;17.90;;;12.03;;
13989;SDS011;7069;52.528;13.316;2022-11-20T03:15:33;18.47;;;12.43;;
13989;SDS011;7069;52.528;13.316;2022-11-20T03:18:02;18.50;;;13.30;;
13989;SDS011;7069;52.528;13.316;2022-11-20T03:20:29;17.57;;;12.87;;
13989;SDS011;7069;52.528;13.316;2022-11-20T03:22:56;15.47;;;12.37;;
13989;SDS011;7069;52.528;13.316;2022-11-20T03:25:22;16.40;;;11.60;;
13989;SDS011;7069;52.528;13.316;2022-11-20T03:27:49;19.17;;;12.43;;
13989;SDS011;7069;52.528;13.316;2022-11-20T03:30:16;16.00;;;11.23;;
13989;SDS011;7069;52.528;13.316;2022-11-20T03:32:45;14.30;;;11.37;;
13989;SDS011;7069;52.528;13.316;2022-11-20T03:35:11;15.83;;;11.97;;
13989;SDS011;7069;52.528;13.316;2022-11-20T03:37:38;16.00;;;12.37;;
13989;SDS011;7069;52.528;13.316;2022-11-20T03:40:06;17.60;;;12.80;;
13989;SDS011;7069;52.528;13.316;2022-11-20T03:42:33;13.87;;;11.23;;
13989;SDS011;7069;52.528;13.316;2022-11-20T03:45:12;15.17;;;10.93;;
13989;SDS011;7069;52.528;13.316;2022-11-20T03:47:39;14.83;;;10.83;;
13989;SDS011;7069;52.528;13.316;2022-11-20T03:50:08;15.53;;;10.80;;
13989;SDS011;7069;52.528;13.316;2022-11-20T03:52:37;13.30;;;11.10;;
13989;SDS011;7069;52.528;13.316;2022-11-20T03:55:04;14.03;;;11.63;;
13989;SDS011;7069;52.528;13.316;2022-11-20T03:57:31;16.77;;;12.87;;
13989;SDS011;7069;52.528;13.316;2022-11-20T03:59:58;15.37;;;11.43;;
13989;SDS011;7069;52.528;13.316;2022-11-20T04:02:25;15.63;;;12.33;;
13989;SDS011;7069;52.528;13.316;2022-11-20T04:04:52;12.93;;;10.63;;
13989;SDS011;7069;52.528;13.316;2022-11-20T04:07:20;15.63;;;11.73;;
13989;SDS011;7069;52.528;13.316;2022-11-20T04:09:47;16.13;;;12.60;;
13989;SDS011;7069;52.528;13.316;2022-11-20T04:12:14;16.60;;;13.10;;
13989;SDS011;7069;52.528;13.316;2022-11-20T04:14:40;20.30;;;11.37;;
13989;SDS011;7069;52.528;13.316;2022-11-20T04:17:07;18.73;;;13.03;;
13989;SDS011;7069;52.528;13.316;2022-11-20T04:19:34;15.20;;;11.67;;
13989;SDS011;7069;52.528;13.316;2022-11-20T04:22:04;15.20;;;12.77;;
13989;SDS011;7069;52.528;13.316;2022-11-20T04:24:32;18.93;;;13.20;;
13989;SDS011;7069;52.528;13.316;2022-11-20T04:26:59;16.17;;;11.83;;
13989;SDS011;7069;52.528;13.316;2022-11-20T04:29:26;13.23;;;11.83;;
13989;SDS011;7069;52.528;13.316;2022-11-20T04:31:53;14.53;;;11.40;;
13989;SDS011;7069;52.528;13.316;2022-11-20T04:34:19;15.67;;;11.27;;
13989;SDS011;7069;52.528;13.316;2022-11-20T04:36:46;15.10;;;12.37;;
13989;SDS011;7069;52.528;13.316;2022-11-20T04:39:14;15.73;;;12.80;;
13989;SDS011;7069;52.528;13.316;2022-11-20T04:41:43;14.40;;;11.67;;
13989;SDS011;7069;52.528;13.316;2022-11-20T04:44:10;16.23;;;11.57;;
13989;SDS011;7069;52.528;13.316;2022-11-20T04:46:38;16.73;;;11.47;;
13989;SDS011;7069;52.528;13.316;2022-11-20T04:49:05;18.30;;;12.47;;
13989;SDS011;7069;52.528;13.316;2022-11-20T04:51:33;14.63;;;11.50;;
13989;SDS011;7069;52.528;13.316;2022-11-20T04:54:00;14.90;;;11.67;;
13989;SDS011;7069;52.528;13.316;2022-11-20T04:56:27;17.43;;;11.40;;
13989;SDS011;7069;52.528;13.316;2022-11-20T04:58:56;19.50;;;13.30;;
13989;SDS011;7069;52.528;13.316;2022-11-20T05:01:26;14.33;;;10.83;;
13989;SDS011;7069;52.528;13.316;2022-11-20T05:03:53;20.97;;;12.77;;
13989;SDS011;7069;52.528;13.316;2022-11-20T05:06:20;13.73;;;11.90;;
13989;SDS011;7069;52.528;13.316;2022-11-20T05:08:48;14.60;;;11.17;;
13989;SDS011;7069;52.528;13.316;2022-11-20T05:11:16;16.23;;;12.10;;
13989;SDS011;7069;52.528;13.316;2022-11-20T05:13:45;14.47;;;11.10;;
13989;SDS011;7069;52.528;13.316;2022-11-20T05:16:13;15.47;;;11.43;;
13989;SDS011;7069;52.528;13.316;2022-11-20T05:18:42;14.27;;;11.37;;
13989;SDS011;7069;52.528;13.316;2022-11-20T05:21:09;17.97;;;12.77;;
13989;SDS011;7069;52.528;13.316;2022-11-20T05:23:36;15.90;;;11.97;;
13989;SDS011;7069;52.528;13.316;2022-11-20T05:26:04;18.60;;;11.60;;
13989;SDS011;7069;52.528;13.316;2022-11-20T05:28:31;14.67;;;11.33;;
13989;SDS011;7069;52.528;13.316;2022-11-20T05:31:03;14.53;;;11.83;;
13989;SDS011;7069;52.528;13.316;2022-11-20T05:33:33;11.83;;;9.73;;
13989;SDS011;7069;52.528;13.316;2022-11-20T05:36:00;16.00;;;12.23;;
13989;SDS011;7069;52.528;13.316;2022-11-20T05:38:27;16.30;;;11.93;;
13989;SDS011;7069;52.528;13.316;2022-11-20T05:40:54;12.93;;;10.83;;
13989;SDS011;7069;52.528;13.316;2022-11-20T05:43:21;16.13;;;11.97;;
13989;SDS011;7069;52.528;13.316;2022-11-20T05:45:51;14.37;;;11.40;;
13989;SDS011;7069;52.528;13.316;2022-11-20T05:48:19;15.20;;;11.17;;
13989;SDS011;7069;52.528;13.316;2022-11-20T05:50:47;14.30;;;11.30;;
13989;SDS011;7069;52.528;13.316;2022-11-20T05:53:14;18.23;;;12.10;;
13989;SDS011;7069;52.528;13.316;2022-11-20T05:55:41;14.67;;;10.87;;
13989;SDS011;7069;52.528;13.316;2022-11-20T05:58:07;14.13;;;10.80;;
13989;SDS011;7069;52.528;13.316;2022-11-20T06:00:34;15.43;;;11.60;;
13989;SDS011;7069;52.528;13.316;2022-11-20T06:03:01;16.17;;;11.77;;
13989;SDS011;7069;52.528;13.316;2022-11-20T06:05:28;14.57;;;11.47;;
13989;SDS011;7069;52.528;13.316;2022-11-20T06:07:56;14.27;;;10.77;;
13989;SDS011;7069;52.528;13.316;2022-11-20T06:10:23;15.37;;;12.27;;
13989;SDS011;7069;52.528;13.316;2022-11-20T06:12:50;15.40;;;10.70;;
13989;SDS011;7069;52.528;13.316;2022-11-20T06:15:17;16.30;;;11.83;;
13989;SDS011;7069;52.528;13.316;2022-11-20T06:17:44;14.57;;;10.80;;
13989;SDS011;7069;52.528;13.316;2022-11-20T06:20:10;16.63;;;11.03;;
13989;SDS011;7069;52.528;13.316;2022-11-20T06:22:37;14.97;;;10.97;;
13989;SDS011;7069;52.528;13.316;2022-11-20T06:25:06;13.57;;;10.80;;
13989;SDS011;7069;52.528;13.316;2022-11-20T06:27:34;11.97;;;9.87;;
13989;SDS011;7069;52.528;13.316;2022-11-20T06:30:00;13.73;;;11.23;;
13989;SDS011;7069;52.528;13.316;2022-11-20T06:32:27;13.17;;;11.33;;
13989;SDS011;7069;52.528;13.316;2022-11-20T06:34:54;15.43;;;11.67;;
13989;SDS011;7069;52.528;13.316;2022-11-20T06:37:21;13.73;;;10.33;;
13989;SDS011;7069;52.528;13.316;2022-11-20T06:39:48;14.70;;;11.30;;
13989;SDS011;7069;52.528;13.316;2022-11-20T06:42:16;13.93;;;10.43;;
13989;SDS011;7069;52.528;13.316;2022-11-20T06:44:43;13.60;;;10.97;;
13989;SDS011;7069;52.528;13.316;2022-11-20T06:47:10;14.73;;;11.77;;
13989;SDS011;7069;52.528;13.316;2022-11-20T06:49:37;15.17;;;11.47;;
13989;SDS011;7069;52.528;13.316;2022-11-20T06:52:04;15.97;;;10.80;;
13989;SDS011;7069;52.528;13.316;2022-11-20T06:54:31;17.70;;;12.63;;
13989;SDS011;7069;52.528;13.316;2022-11-20T06:56:58;14.43;;;11.90;;
13989;SDS011;7069;52.528;13.316;2022-11-20T06:59:26;16.37;;;12.40;;
13989;SDS011;7069;52.528;13.316;2022-11-20T07:01:53;18.67;;;11.83;;
13989;SDS011;7069;52.528;13.316;2022-11-20T07:04:19;16.47;;;11.70;;
13989;SDS011;7069;52.528;13.316;2022-11-20T07:06:46;14.50;;;10.67;;
13989;SDS011;7069;52.528;13.316;2022-11-20T07:09:14;19.30;;;12.53;;
13989;SDS011;7069;52.528;13.316;2022-11-20T07:11:41;16.33;;;11.67;;
13989;SDS011;7069;52.528;13.316;2022-11-20T07:14:08;16.13;;;12.30;;
13989;SDS011;7069;52.528;13.316;2022-11-20T07:16:36;19.17;;;11.97;;
13989;SDS011;7069;52.528;13.316;2022-11-20T07:19:03;17.03;;;12.27;;
13989;SDS011;7069;52.528;13.316;2022-11-20T07:21:29;15.40;;;11.73;;
13989;SDS011;7069;52.528;13.316;2022-11-20T07:23:56;16.30;;;12.53;;
13989;SDS011;7069;52.528;13.316;2022-11-20T07:26:23;16.57;;;12.30;;
13989;SDS011;7069;52.528;13.316;2022-11-20T07:28:50;15.63;;;11.37;;
13989;SDS011;7069;52.528;13.316;2022-11-20T07:31:17;16.67;;;12.30;;
13989;SDS011;7069;52.528;13.316;2022-11-20T07:33:45;16.33;;;12.57;;
13989;SDS011;7069;52.528;13.316;2022-11-20T07:36:12;18.23;;;12.20;;
13989;SDS011;7069;52.528;13.316;2022-11-20T07:38:39;18.47;;;12.30;;
13989;SDS011;7069;52.528;13.316;2022-11-20T07:41:06;16.00;;;12.40;;
13989;SDS011;7069;52.528;13.316;2022-11-20T07:43:32;13.67;;;11.97;;
13989;SDS011;7069;52.528;13.316;2022-11-20T07:45:59;14.90;;;12.17;;
13989;SDS011;7069;52.528;13.316;2022-11-20T07:48:26;17.57;;;13.27;;
13989;SDS011;7069;52.528;13.316;2022-11-20T07:50:55;17.80;;;13.30;;
13989;SDS011;7069;52.528;13.316;2022-11-20T07:53:22;15.60;;;12.03;;
13989;SDS011;7069;52.528;13.316;2022-11-20T07:55:49;18.70;;;13.07;;
13989;SDS011;7069;52.528;13.316;2022-11-20T07:58:17;14.40;;;12.87;;
13989;SDS011;7069;52.528;13.316;2022-11-20T08:00:44;20.40;;;14.27;;
13989;SDS011;7069;52.528;13.316;2022-11-20T08:03:11;17.87;;;12.53;;
13989;SDS011;7069;52.528;13.316;2022-11-20T08:05:38;18.97;;;13.17;;
13989;SDS011;7069;52.528;13.316;2022-11-20T08:08:07;18.00;;;13.10;;
13989;SDS011;7069;52.528;13.316;2022-11-20T08:10:34;14.47;;;12.23;;
13989;SDS011;7069;52.528;13.316;2022-11-20T08:13:01;19.17;;;14.17;;
13989;SDS011;7069;52.528;13.316;2022-11-20T08:15:47;19.50;;;13.57;;
13989;SDS011;7069;52.528;13.316;2022-11-20T08:18:16;18.60;;;12.73;;
13989;SDS011;7069;52.528;13.316;2022-11-20T08:20:43;15.57;;;12.03;;
13989;SDS011;7069;52.528;13.316;2022-11-20T08:23:12;17.37;;;12.93;;
13989;SDS011;7069;52.528;13.316;2022-11-20T08:25:39;15.73;;;12.83;;
13989;SDS011;7069;52.528;13.316;2022-11-20T08:28:06;16.63;;;12.90;;
13989;SDS011;7069;52.528;13.316;2022-11-20T08:30:34;17.30;;;12.93;;
13989;SDS011;7069;52.528;13.316;2022-11-20T08:33:02;17.23;;;12.87;;
13989;SDS011;7069;52.528;13.316;2022-11-20T08:35:32;19.60;;;13.13;;
13989;SDS011;7069;52.528;13.316;2022-11-20T08:37:59;16.83;;;12.40;;
13989;SDS011;7069;52.528;13.316;2022-11-20T08:40:27;21.50;;;14.07;;
13989;SDS011;7069;52.528;13.316;2022-11-20T08:42:54;17.10;;;12.30;;
13989;SDS011;7069;52.528;13.316;2022-11-20T08:45:21;16.70;;;12.77;;
13989;SDS011;7069;52.528;13.316;2022-11-20T08:47:47;18.40;;;13.27;;
13989;SDS011;7069;52.528;13.316;2022-11-20T08:50:15;21.37;;;13.67;;
13989;SDS011;7069;52.528;13.316;2022-11-20T08:52:42;18.13;;;12.53;;
13989;SDS011;7069;52.528;13.316;2022-11-20T08:55:09;14.73;;;11.77;;
13989;SDS011;7069;52.528;13.316;2022-11-20T08:57:38;14.77;;;12.57;;
13989;SDS011;7069;52.528;13.316;2022-11-20T09:00:06;17.80;;;11.77;;
13989;SDS011;7069;52.528;13.316;2022-11-20T09:02:34;17.70;;;13.20;;
13989;SDS011;7069;52.528;13.316;2022-11-20T09:05:01;18.17;;;11.77;;
13989;SDS011;7069;52.528;13.316;2022-11-20T09:07:28;17.67;;;12.63;;
13989;SDS011;7069;52.528;13.316;2022-11-20T09:09:56;17.47;;;13.53;;
13989;SDS011;7069;52.528;13.316;2022-11-20T09:12:23;20.47;;;13.70;;
13989;SDS011;7069;52.528;13.316;2022-11-20T09:14:51;16.87;;;12.43;;
13989;SDS011;7069;52.528;13.316;2022-11-20T09:17:18;15.23;;;12.00;;
13989;SDS011;7069;52.528;13.316;2022-11-20T09:19:45;20.10;;;12.97;;
13989;SDS011;7069;52.528;13.316;2022-11-20T09:22:13;17.57;;;13.33;;
13989;SDS011;7069;52.528;13.316;2022-11-20T09:24:39;17.77;;;13.10;;
13989;SDS011;7069;52.528;13.316;2022-11-20T09:27:07;17.37;;;12.90;;
13989;SDS011;7069;52.528;13.316;2022-11-20T09:29:34;17.43;;;12.73;;
13989;SDS011;7069;52.528;13.316;2022-11-20T09:32:03;17.67;;;13.60;;
13989;SDS011;7069;52.528;13.316;2022-11-20T09:34:31;17.93;;;13.23;;
13989;SDS011;7069;52.528;13.316;2022-11-20T09:36:58;17.60;;;13.93;;
13989;SDS011;7069;52.528;13.316;2022-11-20T09:39:25;18.30;;;13.37;;
13989;SDS011;7069;52.528;13.316;2022-11-20T09:44:56;14.10;;;10.53;;
13989;SDS011;7069;52.528;13.316;2022-11-20T09:47:33;15.80;;;13.07;;
13989;SDS011;7069;52.528;13.316;2022-11-20T09:50:14;18.83;;;13.77;;
13989;SDS011;7069;52.528;13.316;2022-11-20T09:52:53;15.57;;;11.80;;
13989;SDS011;7069;52.528;13.316;2022-11-20T09:55:27;17.97;;;12.23;;
13989;SDS011;7069;52.528;13.316;2022-11-20T09:57:55;17.37;;;13.67;;
13989;SDS011;7069;52.528;13.316;2022-11-20T10:00:23;19.07;;;11.60;;
13989;SDS011;7069;52.528;13.316;2022-11-20T10:02:52;17.50;;;12.07;;
13989;SDS011;7069;52.528;13.316;2022-11-20T10:05:23;15.60;;;10.93;;
13989;SDS011;7069;52.528;13.316;2022-11-20T10:07:52;18.90;;;13.27;;
13989;SDS011;7069;52.528;13.316;2022-11-20T10:10:33;21.53;;;13.33;;
13989;SDS011;7069;52.528;13.316;2022-11-20T10:13:09;17.30;;;11.83;;
13989;SDS011;7069;52.528;13.316;2022-11-20T10:15:45;15.73;;;12.57;;
13989;SDS011;7069;52.528;13.316;2022-11-20T10:18:26;19.47;;;12.80;;
13989;SDS011;7069;52.528;13.316;2022-11-20T10:21:02;18.53;;;12.70;;
13989;SDS011;7069;52.528;13.316;2022-11-20T10:23:36;17.47;;;11.80;;
13989;SDS011;7069;52.528;13.316;2022-11-20T10:26:20;16.47;;;12.00;;
13989;SDS011;7069;52.528;13.316;2022-11-20T10:28:53;16.27;;;12.20;;
13989;SDS011;7069;52.528;13.316;2022-11-20T10:31:28;17.17;;;12.43;;
13989;SDS011;7069;52.528;13.316;2022-11-20T10:34:01;19.60;;;13.17;;
13989;SDS011;7069;52.528;13.316;2022-11-20T10:36:30;17.33;;;12.90;;
13989;SDS011;7069;52.528;13.316;2022-11-20T10:39:03;17.07;;;12.40;;
13989;SDS011;7069;52.528;13.316;2022-11-20T10:41:34;17.90;;;13.93;;
13989;SDS011;7069;52.528;13.316;2022-11-20T10:44:09;16.10;;;11.70;;
13989;SDS011;7069;52.528;13.316;2022-11-20T10:46:38;15.83;;;11.80;;
13989;SDS011;7069;52.528;13.316;2022-11-20T10:49:15;17.23;;;12.87;;
13989;SDS011;7069;52.528;13.316;2022-11-20T10:51:48;18.97;;;12.77;;
13989;SDS011;7069;52.528;13.316;2022-11-20T10:54:22;14.83;;;11.43;;
13989;SDS011;7069;52.528;13.316;2022-11-20T10:56:55;17.03;;;12.27;;
13989;SDS011;7069;52.528;13.316;2022-11-20T10:59:28;18.63;;;12.67;;
13989;SDS011;7069;52.528;13.316;2022-11-20T11:02:13;16.50;;;12.23;;
13989;SDS011;7069;52.528;13.316;2022-11-20T11:04:44;19.57;;;12.07;;
13989;SDS011;7069;52.528;13.316;2022-11-20T11:07:13;17.13;;;11.43;;
13989;SDS011;7069;52.528;13.316;2022-11-20T11:09:42;16.63;;;11.93;;
13989;SDS011;7069;52.528;13.316;2022-11-20T11:12:10;15.50;;;12.00;;
13989;SDS011;7069;52.528;13.316;2022-11-20T11:14:42;14.93;;;11.10;;
13989;SDS011;7069;52.528;13.316;2022-11-20T11:17:18;15.27;;;10.27;;
13989;SDS011;7069;52.528;13.316;2022-11-20T11:19:58;15.30;;;9.63;;
13989;SDS011;7069;52.528;13.316;2022-11-20T11:22:25;11.57;;;9.57;;
13989;SDS011;7069;52.528;13.316;2022-11-20T11:24:54;11.77;;;9.33;;
13989;SDS011;7069;52.528;13.316;2022-11-20T11:27:21;14.33;;;10.33;;
13989;SDS011;7069;52.528;13.316;2022-11-20T11:29:48;11.13;;;9.57;;
13989;SDS011;7069;52.528;13.316;2022-11-20T11:32:17;14.10;;;9.87;;
13989;SDS011;7069;52.528;13.316;2022-11-20T11:34:57;12.37;;;9.27;;
13989;SDS011;7069;52.528;13.316;2022-11-20T11:37:27;11.37;;;8.67;;
13989;SDS011;7069;52.528;13.316;2022-11-20T11:39:58;15.23;;;10.03;;
13989;SDS011;7069;52.528;13.316;2022-11-20T11:42:25;13.03;;;9.27;;
13989;SDS011;7069;52.528;13.316;2022-11-20T11:44:54;10.10;;;8.67;;
13989;SDS011;7069;52.528;13.316;2022-11-20T11:47:32;21.83;;;15.60;;
13989;SDS011;7069;52.528;13.316;2022-11-20T11:50:02;12.97;;;9.80;;
13989;SDS011;7069;52.528;13.316;2022-11-20T11:52:41;10.90;;;9.07;;
13989;SDS011;7069;52.528;13.316;2022-11-20T11:55:11;13.07;;;9.53;;
13989;SDS011;7069;52.528;13.316;2022-11-20T11:57:43;10.87;;;8.53;;
13989;SDS011;7069;52.528;13.316;2022-11-20T12:00:16;9.93;;;8.93;;
13989;SDS011;7069;52.528;13.316;2022-11-20T12:02:48;12.33;;;8.80;;
13989;SDS011;7069;52.528;13.316;2022-11-20T12:05:23;10.20;;;8.90;;
13989;SDS011;7069;52.528;13.316;2022-11-20T12:07:52;13.57;;;8.60;;
13989;SDS011;7069;52.528;13.316;2022-11-20T12:10:21;12.33;;;9.67;;
13989;SDS011;7069;52.528;13.316;2022-11-20T12:13:03;10.97;;;8.93;;
13989;SDS011;7069;52.528;13.316;2022-11-20T12:15:34;13.73;;;8.93;;
13989;SDS011;7069;52.528;13.316;2022-11-20T12:18:01;15.80;;;8.23;;
13989;SDS011;7069;52.528;13.316;2022-11-20T12:20:31;10.43;;;8.03;;
13989;SDS011;7069;52.528;13.316;2022-11-20T12:23:02;12.10;;;8.97;;
13989;SDS011;7069;52.528;13.316;2022-11-20T12:25:34;9.93;;;7.63;;
13989;SDS011;7069;52.528;13.316;2022-11-20T12:28:09;10.40;;;8.47;;
13989;SDS011;7069;52.528;13.316;2022-11-20T12:30:47;13.67;;;8.77;;
13989;SDS011;7069;52.528;13.316;2022-11-20T12:33:20;10.30;;;8.43;;
13989;SDS011;7069;52.528;13.316;2022-11-20T12:36:11;14.13;;;8.80;;
13989;SDS011;7069;52.528;13.316;2022-11-20T12:38:51;12.43;;;8.73;;
13989;SDS011;7069;52.528;13.316;2022-11-20T12:44:40;13.93;;;7.70;;
13989;SDS011;7069;52.528;13.316;2022-11-20T12:47:33;11.47;;;8.47;;
13989;SDS011;7069;52.528;13.316;2022-11-20T12:50:10;9.67;;;7.63;;
13989;SDS011;7069;52.528;13.316;2022-11-20T12:52:44;8.07;;;6.87;;
13989;SDS011;7069;52.528;13.316;2022-11-20T12:55:16;10.67;;;8.13;;
13989;SDS011;7069;52.528;13.316;2022-11-20T12:57:48;14.90;;;8.10;;
13989;SDS011;7069;52.528;13.316;2022-11-20T13:00:17;8.63;;;7.30;;
13989;SDS011;7069;52.528;13.316;2022-11-20T13:02:54;13.17;;;8.53;;
13989;SDS011;7069;52.528;13.316;2022-11-20T13:05:30;11.73;;;8.20;;
13989;SDS011;7069;52.528;13.316;2022-11-20T13:08:00;9.50;;;8.03;;
13989;SDS011;7069;52.528;13.316;2022-11-20T13:10:30;9.27;;;7.80;;
13989;SDS011;7069;52.528;13.316;2022-11-20T13:13:00;10.80;;;7.53;;
13989;SDS011;7069;52.528;13.316;2022-11-20T13:15:36;10.10;;;7.77;;
13989;SDS011;7069;52.528;13.316;2022-11-20T13:18:10;10.30;;;8.30;;
13989;SDS011;7069;52.528;13.316;2022-11-20T13:20:41;11.33;;;8.50;;
13989;SDS011;7069;52.528;13.316;2022-11-20T13:23:10;10.97;;;7.90;;
13989;SDS011;7069;52.528;13.316;2022-11-20T13:25:37;11.30;;;8.43;;
13989;SDS011;7069;52.528;13.316;2022-11-20T13:28:05;10.37;;;7.57;;
13989;SDS011;7069;52.528;13.316;2022-11-20T13:30:55;10.83;;;7.13;;
13989;SDS011;7069;52.528;13.316;2022-11-20T13:33:23;9.63;;;7.63;;
13989;SDS011;7069;52.528;13.316;2022-11-20T13:35:57;9.17;;;7.63;;
13989;SDS011;7069;52.528;13.316;2022-11-20T13:38:26;9.60;;;7.73;;
13989;SDS011;7069;52.528;13.316;2022-11-20T13:40:54;9.40;;;7.43;;
13989;SDS011;7069;52.528;13.316;2022-11-20T13:43:22;8.83;;;7.57;;
13989;SDS011;7069;52.528;13.316;2022-11-20T13:45:54;9.27;;;6.80;;
13989;SDS011;7069;52.528;13.316;2022-11-20T13:48:26;13.03;;;7.60;;
13989;SDS011;7069;52.528;13.316;2022-11-20T13:51:07;8.43;;;7.07;;
13989;SDS011;7069;52.528;13.316;2022-11-20T13:53:52;9.27;;;7.37;;
13989;SDS011;7069;52.528;13.316;2022-11-20T13:56:27;10.13;;;7.97;;
13989;SDS011;7069;52.528;13.316;2022-11-20T13:59:02;8.90;;;6.43;;
13989;SDS011;7069;52.528;13.316;2022-11-20T14:01:35;9.90;;;6.93;;
13989;SDS011;7069;52.528;13.316;2022-11-20T14:04:05;9.87;;;6.43;;
13989;SDS011;7069;52.528;13.316;2022-11-20T14:06:34;8.63;;;6.67;;
13989;SDS011;7069;52.528;13.316;2022-11-20T14:09:10;8.77;;;7.43;;
13989;SDS011;7069;52.528;13.316;2022-11-20T14:11:45;10.33;;;7.97;;
13989;SDS011;7069;52.528;13.316;2022-11-20T14:14:13;8.00;;;6.07;;
13989;SDS011;7069;52.528;13.316;2022-11-20T14:16:41;12.03;;;6.80;;
13989;SDS011;7069;52.528;13.316;2022-11-20T14:19:27;8.93;;;6.27;;
13989;SDS011;7069;52.528;13.316;2022-11-20T14:22:06;8.30;;;7.37;;
13989;SDS011;7069;52.528;13.316;2022-11-20T14:24:36;7.43;;;6.13;;
13989;SDS011;7069;52.528;13.316;2022-11-20T14:27:03;9.87;;;7.50;;
13989;SDS011;7069;52.528;13.316;2022-11-20T14:29:32;9.93;;;7.87;;
13989;SDS011;7069;52.528;13.316;2022-11-20T14:32:00;11.00;;;7.07;;
13989;SDS011;7069;52.528;13.316;2022-11-20T14:34:28;11.33;;;7.70;;
13989;SDS011;7069;52.528;13.316;2022-11-20T14:36:57;10.23;;;7.43;;
13989;SDS011;7069;52.528;13.316;2022-11-20T14:39:25;9.27;;;7.93;;
13989;SDS011;7069;52.528;13.316;2022-11-20T14:41:57;10.47;;;7.87;;
13989;SDS011;7069;52.528;13.316;2022-11-20T14:44:25;8.87;;;7.47;;
13989;SDS011;7069;52.528;13.316;2022-11-20T14:46:54;13.07;;;8.37;;
13989;SDS011;7069;52.528;13.316;2022-11-20T14:49:22;8.63;;;7.30;;